createdAt,value
2024-02-15T00:00:09.893Z,3.38
2024-02-15T00:02:37.367Z,4.53
2024-02-15T00:05:09.197Z,3.00
2024-02-15T00:07:36.344Z,3.10
2024-02-15T00:10:04.696Z,3.65
2024-02-15T00:12:32.058Z,3.88
2024-02-15T00:15:02.730Z,3.38
2024-02-15T00:17:33.839Z,3.63
2024-02-15T00:20:01.377Z,3.47
2024-02-15T00:22:29.842Z,3.97
2024-02-15T00:24:56.733Z,3.80
2024-02-15T00:27:23.998Z,3.63
2024-02-15T00:29:51.369Z,3.42
2024-02-15T00:32:18.636Z,4.03
2024-02-15T00:34:46.268Z,4.20
2024-02-15T00:37:14.182Z,3.85
2024-02-15T00:39:43.462Z,4.03
2024-02-15T00:42:10.709Z,4.03
2024-02-15T00:44:38.401Z,4.32
2024-02-15T00:47:06.306Z,3.70
2024-02-15T00:49:35.271Z,4.53
2024-02-15T00:52:02.879Z,4.43
2024-02-15T00:54:30.242Z,4.85
2024-02-15T00:56:58.806Z,4.60
2024-02-15T00:59:26.134Z,4.55
2024-02-15T01:01:54.535Z,5.22
2024-02-15T01:04:21.997Z,4.60
2024-02-15T01:06:49.164Z,5.03
2024-02-15T01:09:16.306Z,4.68
2024-02-15T01:11:43.466Z,5.07
2024-02-15T01:14:12.000Z,5.63
2024-02-15T01:16:39.430Z,5.75
2024-02-15T01:19:06.949Z,5.18
2024-02-15T01:21:36.663Z,5.65
2024-02-15T01:24:07.804Z,5.13
2024-02-15T01:26:35.985Z,5.53
2024-02-15T01:29:04.464Z,5.32
2024-02-15T01:31:33.137Z,6.03
2024-02-15T01:34:04.113Z,5.88
2024-02-15T01:36:32.168Z,6.18
2024-02-15T01:38:59.255Z,6.80
2024-02-15T01:41:26.384Z,6.38
2024-02-15T01:43:53.704Z,7.05
2024-02-15T01:46:22.192Z,6.32
2024-02-15T01:48:51.198Z,6.47
2024-02-15T01:51:19.709Z,7.03
2024-02-15T01:53:47.348Z,6.65
2024-02-15T01:56:16.318Z,6.88
2024-02-15T01:58:46.934Z,6.05
2024-02-15T02:01:15.884Z,6.25
2024-02-15T02:03:45.290Z,6.72
2024-02-15T02:06:15.241Z,6.30
2024-02-15T02:08:42.573Z,6.68
2024-02-15T02:11:09.802Z,6.50
2024-02-15T02:13:37.036Z,6.13
2024-02-15T02:16:28.606Z,7.00
2024-02-15T02:18:57.825Z,7.20
2024-02-15T02:21:26.974Z,7.57
2024-02-15T02:23:56.633Z,7.45
2024-02-15T02:26:26.687Z,6.70
2024-02-15T02:28:57.207Z,7.05
2024-02-15T02:31:24.258Z,7.72
2024-02-15T02:33:53.461Z,6.60
2024-02-15T02:36:21.169Z,6.72
2024-02-15T02:38:51.446Z,7.32
2024-02-15T02:41:24.470Z,6.88
2024-02-15T02:43:55.307Z,6.45
2024-02-15T02:46:22.496Z,6.78
2024-02-15T02:48:49.809Z,7.45
2024-02-15T02:51:17.095Z,7.95
2024-02-15T02:53:46.678Z,7.85
2024-02-15T02:56:14.207Z,7.18
2024-02-15T02:58:44.262Z,7.95
2024-02-15T03:01:13.002Z,8.27
2024-02-15T03:03:41.012Z,6.53
2024-02-15T03:06:08.317Z,7.97
2024-02-15T03:08:35.742Z,6.88
2024-02-15T03:11:03.069Z,7.40
2024-02-15T03:13:30.616Z,7.60
2024-02-15T03:16:01.021Z,7.32
2024-02-15T03:18:30.178Z,7.60
2024-02-15T03:20:59.714Z,7.10
2024-02-15T03:23:26.657Z,6.47
2024-02-15T03:25:55.627Z,6.47
2024-02-15T03:28:25.547Z,6.78
2024-02-15T03:30:53.931Z,6.65
2024-02-15T03:33:27.583Z,7.10
2024-02-15T03:36:00.850Z,5.78
2024-02-15T03:38:30.382Z,6.90
2024-02-15T03:40:57.729Z,5.97
2024-02-15T03:43:24.824Z,6.53
2024-02-15T03:45:52.277Z,6.20
2024-02-15T03:48:19.631Z,7.03
2024-02-15T03:50:50.081Z,6.32
2024-02-15T03:53:18.825Z,6.32
2024-02-15T03:55:46.693Z,6.72
2024-02-15T03:58:16.044Z,6.20
2024-02-15T04:00:43.184Z,6.55
2024-02-15T04:03:10.835Z,6.43
2024-02-15T04:05:38.089Z,7.57
2024-02-15T04:08:06.502Z,6.78
2024-02-15T04:10:38.078Z,7.28
2024-02-15T04:13:08.586Z,6.75
2024-02-15T04:15:36.097Z,7.10
2024-02-15T04:18:03.499Z,7.30
2024-02-15T04:20:34.030Z,7.88
2024-02-15T04:23:01.386Z,7.38
2024-02-15T04:25:32.438Z,9.45
2024-02-15T04:28:05.163Z,8.38
2024-02-15T04:30:33.019Z,8.20
2024-02-15T04:33:03.711Z,8.20
2024-02-15T04:35:32.234Z,9.00
2024-02-15T04:37:59.703Z,8.98
2024-02-15T04:40:29.746Z,9.27
2024-02-15T04:42:56.897Z,9.75
2024-02-15T04:45:25.330Z,9.35
2024-02-15T04:47:55.100Z,10.40
2024-02-15T04:50:22.587Z,10.80
2024-02-15T04:52:51.179Z,10.98
2024-02-15T04:55:19.371Z,9.68
2024-02-15T04:57:50.575Z,11.38
2024-02-15T05:00:22.039Z,11.20
2024-02-15T05:02:50.936Z,11.20
2024-02-15T05:05:19.566Z,11.30
2024-02-15T05:07:50.251Z,12.60
2024-02-15T05:10:17.400Z,11.50
2024-02-15T05:12:44.480Z,11.73
2024-02-15T05:15:12.698Z,11.65
2024-02-15T05:17:44.310Z,12.25
2024-02-15T05:20:14.048Z,11.63
2024-02-15T05:22:49.789Z,12.40
2024-02-15T05:25:25.010Z,11.82
2024-02-15T05:27:55.269Z,11.60
2024-02-15T05:30:23.401Z,11.90
2024-02-15T05:32:51.324Z,11.90
2024-02-15T05:35:20.107Z,11.60
2024-02-15T05:37:47.418Z,11.10
2024-02-15T05:40:17.036Z,10.95
2024-02-15T05:42:48.365Z,10.77
2024-02-15T05:45:34.538Z,11.75
2024-02-15T05:48:02.498Z,11.25
2024-02-15T05:50:32.751Z,11.73
2024-02-15T05:53:00.288Z,11.65
2024-02-15T05:55:30.541Z,12.02
2024-02-15T05:58:05.143Z,11.38
2024-02-15T06:00:35.760Z,12.82
2024-02-15T06:03:03.771Z,12.00
2024-02-15T06:05:32.278Z,11.75
2024-02-15T06:08:00.156Z,12.38
2024-02-15T06:10:27.314Z,12.70
2024-02-15T06:12:54.394Z,11.63
2024-02-15T06:15:22.208Z,13.02
2024-02-15T06:17:50.666Z,11.77
2024-02-15T06:20:22.506Z,12.27
2024-02-15T06:22:53.313Z,12.57
2024-02-15T06:25:23.011Z,10.88
2024-02-15T06:27:59.665Z,12.32
2024-02-15T06:30:45.378Z,12.55
2024-02-15T06:33:31.600Z,13.48
2024-02-15T06:36:17.631Z,11.80
2024-02-15T06:39:04.658Z,15.07
2024-02-15T06:41:32.016Z,14.70
2024-02-15T06:43:59.719Z,13.20
2024-02-15T06:46:27.715Z,13.50
2024-02-15T06:51:23.204Z,14.70
2024-02-15T06:53:52.726Z,13.35
2024-02-15T06:56:21.662Z,13.75
2024-02-15T06:58:49.676Z,13.40
2024-02-15T07:01:17.568Z,12.18
2024-02-15T07:03:48.813Z,12.75
2024-02-15T07:06:18.622Z,12.02
2024-02-15T07:08:45.942Z,11.88
2024-02-15T07:11:14.556Z,11.65
2024-02-15T07:13:46.189Z,12.18
2024-02-15T07:16:13.706Z,12.25
2024-02-15T07:18:41.111Z,11.57
2024-02-15T07:21:12.689Z,11.55
2024-02-15T07:23:43.855Z,11.05
2024-02-15T07:26:16.706Z,11.27
2024-02-15T07:28:47.358Z,11.02
2024-02-15T07:31:15.777Z,9.15
2024-02-15T07:33:47.252Z,10.10
2024-02-15T07:36:20.850Z,9.48
2024-02-15T07:38:49.624Z,9.32
2024-02-15T07:41:21.077Z,9.88
2024-02-15T07:43:48.482Z,9.95
2024-02-15T07:46:17.723Z,9.25
2024-02-15T07:48:49.044Z,8.73
2024-02-15T07:51:21.392Z,8.60
2024-02-15T07:53:53.860Z,8.10
2024-02-15T07:56:22.724Z,8.80
2024-02-15T07:58:54.185Z,9.02
2024-02-15T08:01:27.262Z,8.40
2024-02-15T08:03:56.826Z,8.50
2024-02-15T08:06:30.263Z,8.48
2024-02-15T08:09:00.447Z,8.85
2024-02-15T08:11:29.056Z,9.30
2024-02-15T08:14:00.523Z,9.48
2024-02-15T08:16:34.878Z,8.98
2024-02-15T08:19:03.741Z,10.85
2024-02-15T08:21:34.301Z,10.07
2024-02-15T08:24:06.587Z,10.70
2024-02-15T08:26:37.284Z,8.60
2024-02-15T08:29:04.367Z,8.65
2024-02-15T08:31:32.896Z,8.77
2024-02-15T08:34:01.786Z,8.70
2024-02-15T08:36:28.969Z,8.02
2024-02-15T08:38:56.146Z,8.32
2024-02-15T08:41:27.985Z,8.38
2024-02-15T08:44:01.883Z,8.20
2024-02-15T08:46:29.022Z,9.05
2024-02-15T08:48:56.248Z,8.38
2024-02-15T08:51:26.213Z,8.18
2024-02-15T08:53:54.447Z,8.15
2024-02-15T08:56:21.585Z,8.15
2024-02-15T08:58:48.821Z,8.38
2024-02-15T09:01:17.907Z,8.35
2024-02-15T09:03:46.597Z,8.10
2024-02-15T09:06:14.689Z,8.60
2024-02-15T09:08:42.529Z,8.70
2024-02-15T09:11:13.767Z,9.32
2024-02-15T09:13:42.694Z,9.98
2024-02-15T09:16:17.182Z,9.90
2024-02-15T09:18:49.881Z,10.57
2024-02-15T09:21:23.136Z,10.20
2024-02-15T09:23:50.665Z,11.43
2024-02-15T09:26:18.843Z,11.65
2024-02-15T09:28:47.207Z,11.27
2024-02-15T09:33:42.889Z,12.20
2024-02-15T09:38:46.741Z,14.10
2024-02-15T09:41:14.226Z,12.13
2024-02-15T09:43:41.514Z,13.27
2024-02-15T09:46:11.122Z,12.95
2024-02-15T09:48:41.752Z,12.90
2024-02-15T09:51:14.507Z,13.85
2024-02-15T09:53:47.426Z,13.40
2024-02-15T09:56:16.565Z,13.48
2024-02-15T09:58:44.792Z,12.75
2024-02-15T10:01:13.424Z,11.98
2024-02-15T10:03:42.031Z,12.43
2024-02-15T10:06:09.619Z,13.60
2024-02-15T10:08:39.360Z,13.50
2024-02-15T10:11:10.836Z,13.10
2024-02-15T10:13:41.046Z,12.82
2024-02-15T10:16:26.720Z,13.00
2024-02-15T10:19:13.647Z,13.15
2024-02-15T10:21:42.912Z,13.10
2024-02-15T10:24:13.959Z,13.23
2024-02-15T10:26:43.033Z,13.23
2024-02-15T10:29:12.132Z,13.07
2024-02-15T10:31:42.959Z,13.82
2024-02-15T10:34:17.730Z,11.95
2024-02-15T10:36:46.318Z,13.68
2024-02-15T10:39:26.977Z,12.80
2024-02-15T10:41:55.995Z,14.85
2024-02-15T10:44:24.932Z,12.13
2024-02-15T10:46:54.229Z,13.75
2024-02-15T10:49:25.512Z,13.05
2024-02-15T10:52:08.199Z,13.95
2024-02-15T10:54:48.352Z,13.55
2024-02-15T10:57:27.809Z,12.13
2024-02-15T11:00:00.161Z,13.32
2024-02-15T11:02:35.955Z,13.18
2024-02-15T11:05:12.031Z,12.93
2024-02-15T11:07:41.707Z,13.80
2024-02-15T11:10:20.967Z,12.85
2024-02-15T11:12:53.140Z,12.57
2024-02-15T11:15:42.696Z,11.68
2024-02-15T11:18:10.216Z,13.88
2024-02-15T11:20:57.692Z,10.75
2024-02-15T11:23:36.393Z,10.13
2024-02-15T11:26:11.112Z,10.68
2024-02-15T11:28:51.646Z,9.98
2024-02-15T11:31:56.816Z,11.55
2024-02-15T11:34:48.000Z,9.75
2024-02-15T11:37:55.816Z,9.07
2024-02-15T11:40:24.684Z,8.85
2024-02-15T11:42:55.646Z,8.77
2024-02-15T11:45:23.342Z,8.57
2024-02-15T11:47:52.879Z,8.20
2024-02-15T11:50:24.530Z,8.20
2024-02-15T11:52:53.254Z,7.85
2024-02-15T11:55:21.260Z,8.95
2024-02-15T12:01:02.723Z,7.72
2024-02-15T12:03:57.225Z,7.95
2024-02-15T12:06:53.532Z,8.32
2024-02-15T12:09:40.967Z,7.90
2024-02-15T12:12:28.988Z,7.95
2024-02-15T12:15:20.181Z,7.45
2024-02-15T12:18:07.244Z,7.75
2024-02-15T12:20:39.523Z,7.43
2024-02-15T12:23:09.182Z,8.98
2024-02-15T12:25:40.688Z,7.25
2024-02-15T12:28:17.963Z,5.97
2024-02-15T12:30:47.660Z,6.47
2024-02-15T12:33:21.932Z,6.13
2024-02-15T12:35:51.602Z,6.18
2024-02-15T12:38:19.602Z,5.30
2024-02-15T12:43:18.260Z,6.00
2024-02-15T12:45:46.934Z,5.03
2024-02-15T12:48:16.939Z,5.68
2024-02-15T12:50:45.400Z,5.18
2024-02-15T12:53:12.858Z,5.03
2024-02-15T12:55:41.981Z,5.18
2024-02-15T12:58:17.038Z,5.07
2024-02-15T13:00:46.310Z,5.05
2024-02-15T13:03:17.441Z,4.72
2024-02-15T13:05:49.419Z,4.53
2024-02-15T13:08:19.155Z,4.70
2024-02-15T13:10:48.159Z,4.22
2024-02-15T13:13:17.306Z,4.10
2024-02-15T13:15:47.770Z,4.00
2024-02-15T13:18:19.212Z,4.15
2024-02-15T13:20:51.115Z,4.25
2024-02-15T13:23:26.789Z,4.07
2024-02-15T13:25:58.217Z,5.07
2024-02-15T13:28:26.212Z,4.60
2024-02-15T13:31:00.439Z,5.05
2024-02-15T13:33:30.578Z,4.88
2024-02-15T13:35:58.302Z,4.47
2024-02-15T13:38:26.058Z,5.30
2024-02-15T13:40:57.286Z,4.40
2024-02-15T13:43:24.977Z,4.35
2024-02-15T13:45:54.120Z,4.85
2024-02-15T13:48:25.683Z,4.80
2024-02-15T13:50:54.653Z,5.20
2024-02-15T13:53:24.372Z,5.20
2024-02-15T13:55:53.521Z,5.97
2024-02-15T13:58:21.191Z,5.72
2024-02-15T14:00:50.027Z,5.82
2024-02-15T14:03:19.754Z,6.07
2024-02-15T14:05:51.348Z,5.95
2024-02-15T14:08:20.209Z,5.45
2024-02-15T14:10:47.748Z,5.00
2024-02-15T14:13:15.745Z,5.18
2024-02-15T14:15:44.781Z,4.95
2024-02-15T14:18:16.728Z,5.95
2024-02-15T14:20:44.838Z,5.35
2024-02-15T14:23:15.539Z,4.80
2024-02-15T14:25:44.197Z,4.50
2024-02-15T14:28:11.945Z,4.53
2024-02-15T14:31:00.019Z,4.35
2024-02-15T14:36:01.332Z,4.20
2024-02-15T14:38:30.942Z,3.60
2024-02-15T14:41:01.026Z,3.70
2024-02-15T14:43:30.278Z,3.28
2024-02-15T14:45:59.003Z,3.25
2024-02-15T14:48:27.476Z,3.28
2024-02-15T14:50:57.751Z,3.13
2024-02-15T14:53:25.619Z,2.78
2024-02-15T14:55:54.840Z,2.50
2024-02-15T14:58:24.211Z,3.88
2024-02-15T15:03:27.323Z,2.70
2024-02-15T15:06:15.641Z,2.78
2024-02-15T15:09:01.547Z,2.55
2024-02-15T15:11:49.180Z,2.72
2024-02-15T15:14:16.872Z,2.60
2024-02-15T15:16:44.669Z,2.97
2024-02-15T15:19:13.544Z,3.40
2024-02-15T15:21:41.430Z,2.60
2024-02-15T15:24:11.520Z,2.72
2024-02-15T15:26:43.533Z,3.25
2024-02-15T15:29:13.032Z,3.25
2024-02-15T15:31:41.631Z,3.22
2024-02-15T15:34:09.972Z,2.88
2024-02-15T15:36:37.577Z,2.90
2024-02-15T15:39:12.182Z,2.25
2024-02-15T15:41:41.788Z,2.83
2024-02-15T15:44:09.514Z,2.40
2024-02-15T15:46:37.363Z,2.88
2024-02-15T15:51:35.010Z,4.30
2024-02-15T15:54:03.541Z,4.00
2024-02-15T15:56:33.826Z,3.88
2024-02-15T15:59:02.650Z,2.90
2024-02-15T16:01:31.368Z,2.75
2024-02-15T16:03:58.737Z,4.10
2024-02-15T16:06:26.088Z,3.97
2024-02-15T16:08:54.107Z,2.38
2024-02-15T16:13:51.499Z,2.53
2024-02-15T16:16:20.324Z,2.38
2024-02-15T16:18:49.959Z,2.30
2024-02-15T16:21:20.198Z,2.30
2024-02-15T16:23:47.991Z,2.28
2024-02-15T16:28:47.953Z,2.85
2024-02-15T16:31:15.693Z,2.22
2024-02-15T16:33:46.450Z,2.20
2024-02-15T16:36:16.840Z,2.20
2024-02-15T16:38:45.632Z,2.50
2024-02-15T16:41:13.505Z,2.60
2024-02-15T16:43:40.934Z,2.75
2024-02-15T16:46:09.269Z,2.50
2024-02-15T16:48:36.915Z,2.75
2024-02-15T16:51:08.262Z,2.83
2024-02-15T16:53:36.286Z,2.35
2024-02-15T16:56:14.733Z,2.50
2024-02-15T16:58:47.834Z,2.70
2024-02-15T17:01:19.348Z,2.47
2024-02-15T17:03:47.080Z,2.40
2024-02-15T17:06:18.987Z,2.58
2024-02-15T17:08:47.328Z,3.30
2024-02-15T17:11:17.466Z,3.53
2024-02-15T17:13:51.294Z,3.15
2024-02-15T17:16:22.658Z,3.45
2024-02-15T17:18:53.750Z,4.28
2024-02-15T17:21:24.613Z,2.50
2024-02-15T17:23:56.200Z,3.40
2024-02-15T17:26:24.783Z,5.13
2024-02-15T17:28:57.858Z,3.65
2024-02-15T17:31:27.241Z,2.78
2024-02-15T17:33:55.427Z,2.95
2024-02-15T17:36:25.198Z,2.92
2024-02-15T17:42:13.533Z,3.53
2024-02-15T17:44:45.665Z,3.20
2024-02-15T17:47:25.337Z,3.10
2024-02-15T17:49:58.529Z,2.80
2024-02-15T17:52:27.706Z,3.05
2024-02-15T17:54:55.168Z,3.30
2024-02-15T17:57:25.251Z,2.95
2024-02-15T17:59:56.005Z,2.63
2024-02-15T18:02:23.034Z,3.47
2024-02-15T18:04:52.115Z,3.25
2024-02-15T18:07:26.061Z,3.22
2024-02-15T18:10:06.970Z,2.92
2024-02-15T18:12:39.612Z,3.28
2024-02-15T18:15:27.398Z,2.83
2024-02-15T18:17:57.765Z,2.85
2024-02-15T18:20:26.217Z,9.60
2024-02-15T18:22:57.183Z,5.43
2024-02-15T18:25:26.998Z,3.63
2024-02-15T18:27:55.274Z,3.35
2024-02-15T18:30:31.958Z,3.08
2024-02-15T18:33:04.778Z,5.28
2024-02-15T18:35:32.751Z,3.60
2024-02-15T18:40:39.354Z,3.35
2024-02-15T18:43:08.341Z,3.53
2024-02-15T18:45:37.641Z,2.40
2024-02-15T18:48:13.577Z,3.15
2024-02-15T18:50:46.068Z,3.13
2024-02-15T18:53:15.633Z,2.70
2024-02-15T18:55:44.676Z,2.47
2024-02-15T18:58:12.606Z,3.05
2024-02-15T19:00:56.573Z,3.30
2024-02-15T19:03:26.533Z,2.88
2024-02-15T19:05:55.939Z,2.63
2024-02-15T19:08:29.790Z,2.70
2024-02-15T19:11:02.344Z,3.47
2024-02-15T19:13:36.871Z,2.90
2024-02-15T19:16:08.998Z,2.78
2024-02-15T19:18:39.741Z,2.85
2024-02-15T19:21:11.035Z,2.80
2024-02-15T19:23:42.688Z,2.60
2024-02-15T19:26:12.159Z,2.53
2024-02-15T19:28:41.045Z,2.80
2024-02-15T19:31:10.617Z,2.92
2024-02-15T19:33:48.099Z,2.50
2024-02-15T19:36:26.225Z,2.75
2024-02-15T19:39:00.133Z,2.83
2024-02-15T19:41:29.929Z,2.90
2024-02-15T19:43:57.871Z,3.05
2024-02-15T19:46:31.821Z,3.00
2024-02-15T19:48:59.416Z,3.03
2024-02-15T19:51:29.787Z,3.60
2024-02-15T19:53:58.122Z,2.97
2024-02-15T19:56:31.380Z,3.08
2024-02-15T19:59:05.614Z,2.70
2024-02-15T20:04:06.625Z,2.40
2024-02-15T20:06:36.088Z,2.15
2024-02-15T20:09:05.015Z,2.80
2024-02-15T20:11:35.752Z,2.50
2024-02-15T20:14:07.720Z,2.80
2024-02-15T20:16:37.595Z,2.80
2024-02-15T20:19:05.246Z,2.70
2024-02-15T20:21:37.169Z,2.70
2024-02-15T20:24:08.539Z,3.40
2024-02-15T20:26:39.494Z,3.33
2024-02-15T20:29:13.622Z,2.95
2024-02-15T20:31:47.703Z,2.47
2024-02-15T20:36:48.253Z,2.78
2024-02-15T20:39:17.231Z,2.97
2024-02-15T20:41:45.672Z,2.50
2024-02-15T20:44:18.810Z,2.75
2024-02-15T20:46:48.154Z,2.70
2024-02-15T20:49:16.508Z,2.25
2024-02-15T20:51:47.145Z,2.42
2024-02-15T20:54:17.067Z,2.33
2024-02-15T20:56:48.764Z,2.42
2024-02-15T20:59:18.240Z,2.20
2024-02-15T21:01:45.872Z,2.13
2024-02-15T21:04:17.424Z,2.22
2024-02-15T21:06:46.174Z,2.47
2024-02-15T21:09:17.838Z,2.15
2024-02-15T21:11:45.520Z,2.05
2024-02-15T21:14:17.380Z,2.10
2024-02-15T21:16:45.040Z,2.50
2024-02-15T21:19:13.293Z,2.40
2024-02-15T21:21:45.427Z,2.40
2024-02-15T21:24:13.828Z,2.67
2024-02-15T21:26:46.191Z,2.60
2024-02-15T21:29:15.775Z,2.40
2024-02-15T21:31:50.823Z,2.60
2024-02-15T21:34:19.578Z,2.75
2024-02-15T21:36:47.417Z,2.30
2024-02-15T21:39:16.260Z,2.33
2024-02-15T21:41:48.636Z,2.97
2024-02-15T21:44:16.106Z,2.60
2024-02-15T21:46:43.397Z,2.63
2024-02-15T21:49:18.751Z,2.78
2024-02-15T21:51:47.220Z,2.63
2024-02-15T21:54:15.353Z,2.47
2024-02-15T21:56:45.415Z,2.42
2024-02-15T21:59:16.016Z,2.90
2024-02-15T22:01:45.295Z,2.50
2024-02-15T22:04:15.613Z,2.65
2024-02-15T22:06:46.937Z,2.38
2024-02-15T22:09:14.447Z,2.55
2024-02-15T22:11:44.378Z,2.10
2024-02-15T22:14:12.108Z,2.67
2024-02-15T22:16:40.997Z,2.33
2024-02-15T22:19:09.713Z,2.90
2024-02-15T22:21:45.435Z,2.50
2024-02-15T22:24:16.658Z,2.55
2024-02-15T22:26:44.671Z,2.10
2024-02-15T22:29:12.756Z,2.75
2024-02-15T22:31:40.620Z,2.47
2024-02-15T22:34:08.397Z,2.70
2024-02-15T22:36:35.815Z,2.45
2024-02-15T22:39:04.951Z,2.30
2024-02-15T22:41:32.482Z,2.55
2024-02-15T22:43:59.675Z,2.90
2024-02-15T22:46:27.191Z,2.13
2024-02-15T22:48:54.958Z,2.40
2024-02-15T22:51:24.316Z,2.78
2024-02-15T22:53:52.046Z,2.70
2024-02-15T22:56:23.106Z,2.92
2024-02-15T22:58:51.561Z,2.75
2024-02-15T23:01:19.212Z,2.80
2024-02-15T23:03:46.736Z,2.72
2024-02-15T23:06:14.091Z,2.67
2024-02-15T23:08:44.069Z,2.67
2024-02-15T23:11:12.063Z,2.83
2024-02-15T23:13:41.429Z,2.70
2024-02-15T23:16:10.543Z,2.75
2024-02-15T23:18:39.047Z,2.88
2024-02-15T23:21:07.016Z,2.38
2024-02-15T23:23:37.769Z,2.78
2024-02-15T23:26:05.445Z,3.13
2024-02-15T23:28:32.733Z,3.25
2024-02-15T23:31:03.302Z,3.13
2024-02-15T23:33:31.885Z,2.72
2024-02-15T23:36:17.922Z,2.85
2024-02-15T23:39:03.659Z,3.25
2024-02-15T23:41:31.066Z,2.92
2024-02-15T23:43:58.654Z,3.50
2024-02-15T23:46:28.824Z,3.42
2024-02-15T23:48:56.296Z,2.97
2024-02-15T23:51:23.802Z,2.95
2024-02-15T23:53:51.705Z,2.80
2024-02-15T23:56:20.707Z,3.47
2024-02-15T23:58:48.154Z,3.33
